Smethport, North Carolina
Current Conditions -  °F | °C
As of 3:15 PM on Thursday 18 Dec 2014 (Local Time) from KGEV Reporting Station
Overcast Overcast  
Wind Chill: 42°   Ceiling: 4100
Heat Index: 44°   Visibility: 10mi
Dew Point:   Wind: 5mph
Humidity: 19%   Direction: 310°NW
Pressure: 30.02"   Gusts: NA
Location:  36.358°N, 81.4709°W
Report Text: KGEV 182015Z AUTO 31004KT 10SM OVC041 07/M16 A3002 RMK AO2 T00671158
Loading
Personal Weather Stations






























Interactive Weather Map New forecast layout! Learn more

10-Day Weather Forecast

Advertisements
Track Severe Weather on mobile